M I D A S
Marine Information and Data Acquisition System
Tripno 1850 of the Zeeleeuw from 2010-03-30 06:50:56 to 2010-03-30 15:46:48
Back to CruiseResearch ActivitiesStationsMapUnderway DataData graphs

EquipmentUnitsComments
TimeDGPSUTC
LatitudeDGPSDM.mWGS84
LongitudeDGPSDM.mWGS84
SpeedMeteo Stationm/sRelative wind speed
DirectionMeteo StationdegRelative wind direction
TemperatureMeteo Stationdeg CelciusAir temperature
PressureMeteo StationPaAtmospheric pressure
HumidityMeteo Station%Relative humidity
Missing or incorrect values are displayed as -999
Metereological data collected by the RV Zeeleeuw from 2010-03-30 06:47:28 to 2010-03-30 16:28:13
Time Latitude Longitude Speed Direction Temperature Pressure Humidity
2010-03-30 06:48 51°13.683 2°55.889 -999 282 9.9 99010 42
2010-03-30 06:49 51°13.695 2°55.79 1 17 9.9 99010 42
2010-03-30 06:50 51°13.693 2°55.728 1.8 21 9.9 99010 42
2010-03-30 06:51 51°13.728 2°55.722 0.1 20 9.9 99010 42
2010-03-30 06:52 51°13.806 2°55.654 -999 282 9.9 99010 42
2010-03-30 06:53 51°13.899 2°55.626 -999 17 9.9 99000 42
2010-03-30 06:54 51°13.994 2°55.578 -999 23 9.9 99000 42
2010-03-30 06:55 51°14.102 2°55.466 -999 255 10 99000 42
2010-03-30 06:56 51°14.228 2°55.323 -999 327 10 99000 42
2010-03-30 06:57 51°14.365 2°55.166 -999 351 10 99000 42
2010-03-30 06:58 51°14.515 2°55.016 -999 320 10 98990 42
2010-03-30 06:59 51°14.617 2°54.78 3.9 25 10 98990 43
2010-03-30 07:00 51°14.594 2°54.463 7.5 28 10.1 98980 41
2010-03-30 07:01 51°14.49 2°54.137 9.5 24 10.1 98960 43
2010-03-30 07:02 51°14.361 2°53.822 9.6 25 10.1 98970 41
2010-03-30 07:03 51°14.233 2°53.501 7.5 23 10.1 98970 42
2010-03-30 07:04 51°14.105 2°53.167 7 22 10.1 98960 41
2010-03-30 07:05 51°13.982 2°52.825 7.1 22 10 98960 41
2010-03-30 07:06 51°13.854 2°52.483 7.1 285 10 98970 41
2010-03-30 07:07 51°13.73 2°52.14 7 279 10 98970 41
2010-03-30 07:08 51°13.618 2°51.844 6.3 24 10 98970 41
2010-03-30 07:09 51°13.526 2°51.593 5 24 9.9 98970 40
2010-03-30 07:10 51°13.458 2°51.439 4.8 21 9.9 98980 43
2010-03-30 07:11 51°13.446 2°51.406 4.7 258 9.9 98980 42
2010-03-30 07:12 51°13.444 2°51.395 4.2 260 9.9 98990 41
2010-03-30 07:13 51°13.44 2°51.38 3.6 264 9.9 98980 43
2010-03-30 07:14 51°13.434 2°51.36 3.6 262 9.8 98980 43
2010-03-30 07:15 51°13.428 2°51.336 3.9 262 9.8 98980 41
2010-03-30 07:16 51°13.421 2°51.309 4.4 262 9.8 98980 42
2010-03-30 07:17 51°13.414 2°51.28 3.6 264 9.8 98980 42
2010-03-30 07:18 51°13.407 2°51.248 4.1 265 9.7 98980 41
2010-03-30 07:19 51°13.4 2°51.213 3.3 284 9.7 98980 43
2010-03-30 07:20 51°13.393 2°51.177 4 265 9.7 98980 43
2010-03-30 07:21 51°13.385 2°51.139 2.7 282 9.7 98980 41
2010-03-30 07:22 51°13.371 2°51.085 6.4 28 9.7 98980 43
2010-03-30 07:23 51°13.316 2°51.036 6.8 283 9.7 98970 41
2010-03-30 07:24 51°13.271 2°51.073 6.9 358 9.7 98970 42
2010-03-30 07:25 51°13.296 2°51.12 5.2 18 9.8 98970 40
2010-03-30 07:26 51°13.366 2°51.22 6.4 2 9.8 98970 44
2010-03-30 07:27 51°13.426 2°51.387 6.8 5 9.7 98970 43
2010-03-30 07:28 51°13.5 2°51.541 7 10 9.7 98970 43
2010-03-30 07:29 51°13.555 2°51.572 4.9 80 9.8 98980 42
2010-03-30 07:30 51°13.569 2°51.532 2.9 21 9.9 98970 42
2010-03-30 07:31 51°13.571 2°51.483 5.6 25 9.9 98980 42
2010-03-30 07:32 51°13.572 2°51.434 4.7 22 9.9 98980 42
2010-03-30 07:33 51°13.571 2°51.385 6.3 21 9.9 98980 40
2010-03-30 07:34 51°13.569 2°51.339 4.5 270 9.9 98980 41
2010-03-30 07:35 51°13.563 2°51.304 5.7 74 9.8 98990 41
2010-03-30 07:36 51°13.557 2°51.284 4.5 268 9.8 98980 41
2010-03-30 07:37 51°13.55 2°51.266 4.3 269 9.8 98980 41
2010-03-30 07:38 51°13.545 2°51.246 4.7 270 9.7 98980 41
2010-03-30 07:39 51°13.524 2°51.18 7.2 20 9.8 98980 42
2010-03-30 07:40 51°13.45 2°51.151 7.9 333 9.8 98960 41
2010-03-30 07:41 51°13.421 2°51.236 6.6 5 9.8 98950 41
2010-03-30 07:42 51°13.482 2°51.345 6.4 11 9.8 98960 43
2010-03-30 07:43 51°13.503 2°51.455 6.4 1 9.8 98960 43
2010-03-30 07:44 51°13.482 2°51.482 6.3 347 9.8 98960 42
2010-03-30 07:45 51°13.465 2°51.464 6.6 341 9.8 98960 42
2010-03-30 07:46 51°13.45 2°51.438 4.7 335 9.9 98960 42
2010-03-30 07:47 51°13.438 2°51.407 5.3 280 9.9 98960 42
2010-03-30 07:48 51°13.428 2°51.372 6.8 333 9.9 98970 44
2010-03-30 07:49 51°13.421 2°51.335 6.5 326 9.9 98970 43
2010-03-30 07:50 51°13.416 2°51.298 4.5 285 9.9 98970 42
2010-03-30 07:51 51°13.413 2°51.26 5.9 286 9.9 98960 44
2010-03-30 07:52 51°13.411 2°51.223 6.1 284 9.9 98960 43
2010-03-30 07:53 51°13.41 2°51.191 6.3 282 9.9 98960 42
2010-03-30 07:54 51°13.407 2°51.162 5.2 279 9.9 98960 42
2010-03-30 07:55 51°13.402 2°51.134 7.4 279 9.9 98960 42
2010-03-30 07:56 51°13.396 2°51.106 3.7 280 9.9 98970 44
2010-03-30 07:57 51°13.391 2°51.078 2.2 278 9.9 98970 44
2010-03-30 07:58 51°13.385 2°51.049 2.6 285 9.9 98970 44
2010-03-30 07:59 51°13.38 2°51.021 4.3 283 9.9 98970 42
2010-03-30 08:00 51°13.375 2°50.995 2.8 279 9.9 98960 44
2010-03-30 08:01 51°13.37 2°50.968 3.5 278 9.9 98970 44
2010-03-30 08:02 51°13.365 2°50.94 3.8 284 9.9 98970 45
2010-03-30 08:03 51°13.359 2°50.913 2.8 284 9.9 98960 45
2010-03-30 08:04 51°13.354 2°50.887 5.4 283 9.9 98960 43
2010-03-30 08:05 51°13.35 2°50.861 3.4 285 9.9 98970 43
2010-03-30 08:06 51°13.345 2°50.836 5.3 279 9.9 98960 45
2010-03-30 08:07 51°13.326 2°50.785 8.1 281 9.9 98940 44
2010-03-30 08:08 51°13.273 2°50.756 6.1 281 9.9 98940 43
2010-03-30 08:09 51°13.235 2°50.802 6.1 9 9.9 98940 44
2010-03-30 08:10 51°13.273 2°50.851 5.7 18 10 98950 45
2010-03-30 08:11 51°13.308 2°50.924 4.9 11 10 98940 42
2010-03-30 08:12 51°13.335 2°50.997 4.5 10 9.9 98940 42
2010-03-30 08:13 51°13.366 2°51.075 4.6 11 9.9 98950 42
2010-03-30 08:14 51°13.395 2°51.155 5.4 11 9.9 98940 42
2010-03-30 08:15 51°13.426 2°51.232 6.4 7 9.9 98940 45
2010-03-30 08:16 51°13.458 2°51.308 5.5 9 9.9 98940 42
2010-03-30 08:17 51°13.486 2°51.387 4.8 10 9.9 98940 43
2010-03-30 08:18 51°13.517 2°51.463 5.4 13 9.9 98930 42
2010-03-30 08:19 51°13.548 2°51.54 7.3 11 9.9 98940 45
2010-03-30 08:20 51°13.578 2°51.617 5.2 15 10 98940 42
2010-03-30 08:21 51°13.608 2°51.696 5.8 10 10 98940 43
2010-03-30 08:22 51°13.638 2°51.774 5.9 14 10 98940 42
2010-03-30 08:23 51°13.668 2°51.854 5.2 17 10.1 98930 43
2010-03-30 08:24 51°13.697 2°51.935 4.4 16 10.1 98940 42
2010-03-30 08:25 51°13.727 2°52.016 5.4 15 10.1 98930 44
2010-03-30 08:26 51°13.757 2°52.099 5.6 17 10.1 98940 42
2010-03-30 08:27 51°13.787 2°52.182 6.8 19 10.1 98940 42
2010-03-30 08:28 51°13.817 2°52.265 5.3 17 10.2 98940 42
2010-03-30 08:29 51°13.847 2°52.347 4.7 21 10.2 98930 45
2010-03-30 08:30 51°13.876 2°52.43 4.9 17 10.2 98940 42
2010-03-30 08:31 51°13.906 2°52.512 6.3 15 10.3 98930 45
2010-03-30 08:32 51°13.936 2°52.594 6.4 19 10.3 98920 43
2010-03-30 08:33 51°13.967 2°52.677 5.5 16 10.3 98930 44
2010-03-30 08:34 51°13.995 2°52.765 6 19 10.4 98930 43
2010-03-30 08:35 51°14.023 2°52.852 4.8 19 10.4 98930 44
2010-03-30 08:36 51°14.046 2°52.943 6.8 17 10.4 98930 42
2010-03-30 08:37 51°14.042 2°53.04 6.8 359 10.5 98920 42
2010-03-30 08:38 51°14.011 2°53.131 7.6 281 10.5 98920 45
2010-03-30 08:39 51°13.954 2°53.196 7.5 284 10.6 98930 44
2010-03-30 08:40 51°13.877 2°53.198 6.6 285 10.6 98920 44
2010-03-30 08:41 51°13.803 2°53.131 7.7 280 10.7 98920 42
2010-03-30 08:42 51°13.767 2°53.001 4.8 286 10.7 98920 42
2010-03-30 08:43 51°13.77 2°52.874 4.6 278 10.7 98930 42
2010-03-30 08:44 51°13.784 2°52.771 2.3 281 10.7 98920 43
2010-03-30 08:45 51°13.788 2°52.689 3.7 284 10.6 98920 42
2010-03-30 08:46 51°13.785 2°52.619 3.6 279 10.6 98920 44
2010-03-30 08:47 51°13.78 2°52.559 6.4 282 10.6 98920 45
2010-03-30 08:48 51°13.774 2°52.505 5.1 278 10.6 98920 43
2010-03-30 08:49 51°13.734 2°52.366 7.8 280 10.6 98910 43
2010-03-30 08:50 51°13.645 2°52.233 7.8 281 10.6 98910 44
2010-03-30 08:51 51°13.581 2°52.17 6 281 10.7 98900 44
2010-03-30 08:52 51°13.534 2°52.127 5.6 278 10.7 98910 44
2010-03-30 08:53 51°13.499 2°52.086 6.7 286 10.7 98910 42
2010-03-30 08:54 51°13.473 2°52.047 6.6 279 10.7 98910 44
2010-03-30 08:55 51°13.453 2°52.007 5.5 281 10.7 98910 42
2010-03-30 08:56 51°13.437 2°51.969 5.4 283 10.7 98910 42
2010-03-30 08:57 51°13.422 2°51.927 5.8 281 10.7 98910 42
2010-03-30 08:58 51°13.407 2°51.829 4.4 289 10.7 98900 42
2010-03-30 08:59 51°13.429 2°51.714 3.9 85 10.7 98910 44
2010-03-30 09:00 51°13.464 2°51.578 4.8 280 10.7 98910 42
2010-03-30 09:01 51°13.465 2°51.505 5.7 281 10.6 98910 44
2010-03-30 09:02 51°13.459 2°51.475 5.7 281 10.5 98910 41
2010-03-30 09:03 51°13.455 2°51.445 4.2 282 10.5 98910 44
2010-03-30 09:04 51°13.452 2°51.415 4.7 285 10.5 98910 42
2010-03-30 09:05 51°13.451 2°51.384 5.6 76 10.6 98900 44
2010-03-30 09:06 51°13.449 2°51.353 5.2 285 10.6 98910 44
2010-03-30 09:07 51°13.449 2°51.321 6.4 286 10.6 98900 42
2010-03-30 09:08 51°13.438 2°51.269 5.3 286 10.7 98900 42
2010-03-30 09:09 51°13.383 2°51.231 6.3 279 10.7 98900 41
2010-03-30 09:10 51°13.354 2°51.291 6 14 10.7 98900 41
2010-03-30 09:11 51°13.419 2°51.487 6.7 9 10.7 98910 41
2010-03-30 09:12 51°13.525 2°51.751 6.3 -999 10.6 98900 42
2010-03-30 09:13 51°13.636 2°52.033 5.6 2 10.6 98900 41
2010-03-30 09:14 51°13.747 2°52.318 6.8 1 10.6 98900 42
2010-03-30 09:15 51°13.856 2°52.607 7.4 2 10.7 98900 42
2010-03-30 09:16 51°13.968 2°52.895 6.6 3 10.7 98900 44
2010-03-30 09:17 51°14.099 2°53.163 5.8 6 10.7 98900 43
2010-03-30 09:18 51°14.245 2°53.412 5.7 4 10.7 98900 43
2010-03-30 09:19 51°14.394 2°53.654 3.7 4 10.8 98910 44
2010-03-30 09:20 51°14.587 2°53.651 2.3 280 10.8 98910 42
2010-03-30 09:21 51°14.669 2°53.331 6 283 10.8 98910 43
2010-03-30 09:22 51°14.714 2°52.966 8.3 278 10.7 98920 44
2010-03-30 09:23 51°14.758 2°52.593 6.9 286 10.7 98910 43
2010-03-30 09:24 51°14.802 2°52.216 12.7 282 10.7 98920 42
2010-03-30 09:25 51°14.847 2°51.843 13 281 10.5 98950 40
2010-03-30 09:26 51°14.892 2°51.476 14.4 282 10.1 98950 42
2010-03-30 09:27 51°14.94 2°51.102 19.3 282 9.8 98950 41
2010-03-30 09:28 51°14.988 2°50.737 19.6 283 9.5 98940 41
2010-03-30 09:29 51°15.035 2°50.374 14.6 285 9.2 98940 41
2010-03-30 09:30 51°15.081 2°50.013 13.5 278 9 98940 41
2010-03-30 09:31 51°15.127 2°49.654 16.2 283 8.8 98940 41
2010-03-30 09:32 51°15.175 2°49.3 16.4 281 8.6 98940 41
2010-03-30 09:33 51°15.223 2°48.949 14.8 283 8.5 98930 39
2010-03-30 09:34 51°15.269 2°48.599 15 283 8.4 98930 40
2010-03-30 09:35 51°15.32 2°48.255 12 278 8.3 98930 40
2010-03-30 09:36 51°15.411 2°47.939 10.3 282 8.2 98950 41
2010-03-30 09:37 51°15.55 2°47.664 13.1 282 8.1 98940 41
2010-03-30 09:38 51°15.695 2°47.392 11.4 287 8 98950 40
2010-03-30 09:39 51°15.816 2°47.096 11.7 281 8 98940 40
2010-03-30 09:40 51°15.904 2°46.771 12.6 278 8 98930 41
2010-03-30 09:41 51°15.988 2°46.445 12.8 282 8 98940 39
2010-03-30 09:42 51°16.073 2°46.122 11.4 282 7.9 98940 40
2010-03-30 09:43 51°16.156 2°45.8 12 281 7.9 98930 41
2010-03-30 09:44 51°16.239 2°45.481 12.5 282 7.9 98930 40
2010-03-30 09:45 51°16.336 2°45.169 12.8 281 7.8 98940 40
2010-03-30 09:46 51°16.432 2°44.859 11 284 7.8 98940 41
2010-03-30 09:47 51°16.526 2°44.544 11.1 282 7.8 98930 40
2010-03-30 09:48 51°16.621 2°44.228 12.5 279 7.8 98940 40
2010-03-30 09:49 51°16.72 2°43.914 12.9 280 7.8 98930 40
2010-03-30 09:50 51°16.846 2°43.63 12.1 281 7.8 98920 41
2010-03-30 09:51 51°16.975 2°43.35 9.4 24 7.7 98930 40
2010-03-30 09:52 51°17.106 2°43.071 11 285 7.7 98930 40
2010-03-30 09:53 51°17.238 2°42.797 10.5 25 7.7 98920 40
2010-03-30 09:54 51°17.372 2°42.517 9.8 281 7.6 98900 40
2010-03-30 09:55 51°17.509 2°42.229 11 279 7.6 98920 41
2010-03-30 09:56 51°17.644 2°41.94 10 24 7.6 98920 40
2010-03-30 09:57 51°17.764 2°41.638 10.7 286 7.6 98920 38
2010-03-30 09:58 51°17.825 2°41.29 11 317 7.6 98920 41
2010-03-30 09:59 51°17.881 2°40.938 10.5 286 7.5 98910 41
2010-03-30 10:00 51°17.941 2°40.596 11.3 23 7.5 98910 41
2010-03-30 10:01 51°18.003 2°40.259 11.7 279 7.5 98910 41
2010-03-30 10:02 51°18.069 2°39.925 9.7 316 7.5 98910 40
2010-03-30 10:03 51°18.126 2°39.589 10.4 281 7.5 98910 40
2010-03-30 10:04 51°18.119 2°39.234 11.4 322 7.5 98910 41
2010-03-30 10:05 51°18.103 2°38.875 10.6 280 7.5 98900 40
2010-03-30 10:06 51°18.092 2°38.516 12 283 7.5 98900 40
2010-03-30 10:07 51°18.083 2°38.155 11.1 321 7.5 98900 41
2010-03-30 10:08 51°18.073 2°37.794 10.2 287 7.5 98910 40
2010-03-30 10:09 51°18.064 2°37.433 10.6 322 7.5 98910 41
2010-03-30 10:10 51°18.052 2°37.072 11.5 281 7.5 98900 40
2010-03-30 10:11 51°18.04 2°36.713 11.6 320 7.5 98900 41
2010-03-30 10:12 51°18.029 2°36.359 11 279 7.5 98900 40
2010-03-30 10:13 51°18.017 2°36.013 10.7 319 7.5 98900 40
2010-03-30 10:14 51°17.989 2°35.67 11.9 278 7.5 98900 41
2010-03-30 10:15 51°17.961 2°35.326 11.2 284 7.5 98900 41
2010-03-30 10:16 51°17.92 2°34.984 11.1 323 7.5 98900 41
2010-03-30 10:17 51°17.879 2°34.644 10.9 282 7.5 98900 41
2010-03-30 10:18 51°17.829 2°34.303 11.7 322 7.5 98900 41
2010-03-30 10:19 51°17.741 2°33.978 12.9 287 7.5 98900 41
2010-03-30 10:20 51°17.648 2°33.655 11.8 327 7.4 98900 41
2010-03-30 10:21 51°17.557 2°33.331 11.5 283 7.4 98900 39
2010-03-30 10:22 51°17.465 2°33.017 11.6 284 7.4 98900 40
2010-03-30 10:23 51°17.377 2°32.71 12 325 7.4 98900 41
2010-03-30 10:24 51°17.291 2°32.403 11.6 283 7.4 98910 41
2010-03-30 10:25 51°17.204 2°32.097 11 283 7.4 98900 42
2010-03-30 10:26 51°17.116 2°31.794 10.8 284 7.4 98900 40
2010-03-30 10:27 51°17.029 2°31.491 11.4 324 7.4 98900 40
2010-03-30 10:28 51°16.94 2°31.188 11 277 7.4 98900 40
2010-03-30 10:29 51°16.849 2°30.884 11.3 323 7.4 98900 39
2010-03-30 10:30 51°16.761 2°30.579 11 282 7.4 98900 40
2010-03-30 10:31 51°16.673 2°30.274 10.8 323 7.4 98900 41
2010-03-30 10:32 51°16.584 2°29.967 10.1 286 7.4 98890 41
2010-03-30 10:33 51°16.495 2°29.66 11.4 284 7.4 98900 41
2010-03-30 10:34 51°16.406 2°29.354 10.4 324 7.4 98900 40
2010-03-30 10:35 51°16.316 2°29.049 10.8 287 7.4 98900 40
2010-03-30 10:36 51°16.23 2°28.745 10.4 325 7.4 98900 41
2010-03-30 10:37 51°16.146 2°28.443 10.7 282 7.4 98900 40
2010-03-30 10:38 51°16.064 2°28.14 10.5 323 7.5 98900 40
2010-03-30 10:39 51°15.985 2°27.845 10.9 287 7.5 98900 41
2010-03-30 10:40 51°15.909 2°27.558 10.9 320 7.6 98900 41
2010-03-30 10:41 51°15.837 2°27.271 10.8 317 7.7 98900 41
2010-03-30 10:42 51°15.813 2°26.966 10.6 280 7.7 98910 40
2010-03-30 10:43 51°15.791 2°26.665 9.2 318 7.7 98910 41
2010-03-30 10:44 51°15.765 2°26.372 10 280 7.7 98910 40
2010-03-30 10:45 51°15.739 2°26.081 9.8 317 7.7 98910 40
2010-03-30 10:46 51°15.734 2°25.791 9.2 282 7.7 98920 41
2010-03-30 10:47 51°15.742 2°25.517 9.1 24 7.7 98920 41
2010-03-30 10:48 51°15.851 2°25.395 7.6 281 7.7 98930 41
2010-03-30 10:49 51°15.972 2°25.317 5.8 258 7.7 98940 39
2010-03-30 10:50 51°16.075 2°25.329 5.3 29 7.7 98930 39
2010-03-30 10:51 51°16.1 2°25.396 3.4 24 7.6 98930 41
2010-03-30 10:52 51°16.104 2°25.459 5.2 20 7.7 98920 41
2010-03-30 10:53 51°16.113 2°25.523 6.3 23 7.6 98930 40
2010-03-30 10:54 51°16.125 2°25.597 6.4 37 7.6 98920 39
2010-03-30 10:55 51°16.134 2°25.679 6.1 30 7.5 98920 40
2010-03-30 10:56 51°16.14 2°25.762 6.9 25 7.5 98920 39
2010-03-30 10:57 51°16.144 2°25.845 6.4 22 7.5 98920 42
2010-03-30 10:58 51°16.148 2°25.926 6.4 18 7.5 98930 42
2010-03-30 10:59 51°16.15 2°26.012 6.2 15 7.5 98920 40
2010-03-30 11:00 51°16.127 2°26.138 6.8 11 7.5 98920 39
2010-03-30 11:01 51°16.101 2°26.354 5.2 15 7.5 98920 40
2010-03-30 11:02 51°16.118 2°26.655 4.7 19 7.6 98930 40
2010-03-30 11:03 51°16.14 2°26.97 4.8 12 7.6 98930 39
2010-03-30 11:04 51°16.143 2°27.29 5.3 9 7.6 98910 41
2010-03-30 11:05 51°16.147 2°27.654 3.6 7 7.6 98920 42
2010-03-30 11:06 51°16.213 2°28.033 1.5 7 7.6 98920 39
2010-03-30 11:07 51°16.322 2°28.392 1.1 3 7.6 98920 40
2010-03-30 11:08 51°16.425 2°28.767 2.1 7 7.6 98930 40
2010-03-30 11:09 51°16.524 2°29.145 1.9 8 7.6 98930 41
2010-03-30 11:10 51°16.623 2°29.524 2.5 5 7.6 98930 42
2010-03-30 11:11 51°16.715 2°29.902 3.9 5 7.6 98920 41
2010-03-30 11:12 51°16.806 2°30.281 3.5 8 7.6 98930 42
2010-03-30 11:13 51°16.897 2°30.657 4.4 8 7.6 98930 39
2010-03-30 11:14 51°16.987 2°31.03 4.1 7 7.6 98930 40
2010-03-30 11:15 51°17.078 2°31.4 3.4 9 7.6 98930 39
2010-03-30 11:16 51°17.166 2°31.77 4.6 12 7.6 98930 42
2010-03-30 11:17 51°17.254 2°32.144 4.1 8 7.6 98920 41
2010-03-30 11:18 51°17.346 2°32.522 3.1 9 7.7 98920 42
2010-03-30 11:19 51°17.44 2°32.896 3.7 8 7.7 98920 42
2010-03-30 11:20 51°17.531 2°33.281 3.8 3 7.7 98920 39
2010-03-30 11:21 51°17.622 2°33.665 3.7 6 7.6 98920 42
2010-03-30 11:22 51°17.715 2°34.046 3.3 4 7.6 98930 40
2010-03-30 11:23 51°17.815 2°34.43 3.8 354 7.6 98940 40
2010-03-30 11:24 51°17.911 2°34.818 3.7 4 7.6 98930 40
2010-03-30 11:25 51°17.954 2°35.223 7.1 357 7.6 98920 39
2010-03-30 11:26 51°17.831 2°35.532 10.2 348 7.5 98910 42
2010-03-30 11:27 51°17.652 2°35.754 9.7 345 7.5 98910 41
2010-03-30 11:28 51°17.441 2°35.806 11.9 338 7.7 98920 40
2010-03-30 11:29 51°17.23 2°35.806 11.6 280 7.8 98910 41
2010-03-30 11:30 51°17.018 2°35.851 13.1 340 8 98930 40
2010-03-30 11:31 51°16.807 2°35.896 12.6 339 8.1 98930 42
2010-03-30 11:32 51°16.6 2°35.939 8.8 338 8.1 98950 40
2010-03-30 11:33 51°16.394 2°35.982 8.8 338 8.1 98940 39
2010-03-30 11:34 51°16.189 2°36.03 9.9 338 8.1 98940 40
2010-03-30 11:35 51°15.99 2°36.078 8.5 339 8.2 98940 41
2010-03-30 11:36 51°15.793 2°36.132 9.4 339 8.2 98930 40
2010-03-30 11:37 51°15.597 2°36.24 9.4 342 8.2 98910 41
2010-03-30 11:38 51°15.398 2°36.348 8.8 342 8.3 98900 40
2010-03-30 11:39 51°15.197 2°36.458 9.3 340 8.3 98900 41
2010-03-30 11:40 51°14.994 2°36.566 9.2 341 8.3 98900 41
2010-03-30 11:41 51°14.79 2°36.677 9.1 340 8.3 98910 40
2010-03-30 11:42 51°14.584 2°36.785 9.1 341 8.3 98910 39
2010-03-30 11:43 51°14.376 2°36.894 8 339 8.4 98910 41
2010-03-30 11:44 51°14.168 2°37.004 8.7 339 8.3 98910 41
2010-03-30 11:45 51°13.959 2°37.118 8.4 339 8.4 98900 41
2010-03-30 11:46 51°13.751 2°37.23 8.3 339 8.4 98900 40
2010-03-30 11:47 51°13.545 2°37.343 8.9 337 8.4 98900 39
2010-03-30 11:48 51°13.337 2°37.443 8.6 338 8.5 98910 41
2010-03-30 11:49 51°13.128 2°37.544 9 339 8.5 98910 39
2010-03-30 11:50 51°12.921 2°37.646 9 281 8.6 98910 40
2010-03-30 11:51 51°12.714 2°37.744 8.1 285 8.7 98910 40
2010-03-30 11:52 51°12.535 2°37.652 8.2 285 8.8 98910 40
2010-03-30 11:53 51°12.415 2°37.418 9.2 283 8.7 98910 41
2010-03-30 11:54 51°12.262 2°37.224 8.6 283 8.7 98910 39
2010-03-30 11:55 51°12.095 2°37.041 9.1 282 8.8 98910 41
2010-03-30 11:56 51°11.932 2°36.856 8.5 281 8.8 98910 41
2010-03-30 11:57 51°11.769 2°36.669 8.4 281 8.8 98900 40
2010-03-30 11:58 51°11.607 2°36.48 8.2 280 8.8 98900 39
2010-03-30 11:59 51°11.449 2°36.29 8.6 279 8.8 98900 39
2010-03-30 12:00 51°11.28 2°36.118 9.4 284 8.8 98900 39
2010-03-30 12:01 51°11.105 2°35.962 8.4 286 8.8 98910 40
2010-03-30 12:02 51°10.905 2°35.901 9 284 8.9 98910 40
2010-03-30 12:03 51°10.699 2°35.874 9.5 283 9 98910 39
2010-03-30 12:04 51°10.496 2°35.841 9.1 280 9.1 98910 39
2010-03-30 12:05 51°10.292 2°35.82 8.4 282 9.2 98910 38
2010-03-30 12:06 51°10.091 2°35.905 8.3 284 9.2 98910 39
2010-03-30 12:07 51°9.929 2°36.157 7.5 281 9.3 98900 38
2010-03-30 12:08 51°9.781 2°36.437 8.2 349 9.3 98910 40
2010-03-30 12:09 51°9.658 2°36.673 8.3 352 9.3 98910 40
2010-03-30 12:10 51°9.572 2°36.869 7.3 352 9.4 98910 40
2010-03-30 12:11 51°9.5 2°37.058 6.5 353 9.5 98900 40
2010-03-30 12:12 51°9.459 2°37.226 5.8 9 9.6 98910 38
2010-03-30 12:13 51°9.476 2°37.371 4.2 38 9.8 98920 37
2010-03-30 12:14 51°9.503 2°37.451 5.8 75 9.9 98920 39
2010-03-30 12:15 51°9.511 2°37.494 5.7 75 9.9 98920 38
2010-03-30 12:16 51°9.522 2°37.54 6.3 80 9.8 98920 38
2010-03-30 12:17 51°9.537 2°37.589 5.6 82 9.8 98920 39
2010-03-30 12:18 51°9.556 2°37.64 6.6 45 9.9 98920 38
2010-03-30 12:19 51°9.576 2°37.695 6.7 38 9.9 98910 39
2010-03-30 12:20 51°9.598 2°37.75 6.4 35 9.9 98910 40
2010-03-30 12:21 51°9.621 2°37.812 6.9 34 9.9 98910 37
2010-03-30 12:22 51°9.684 2°37.905 5.5 82 10 98910 39
2010-03-30 12:23 51°9.744 2°37.874 9.2 285 10.2 98920 37
2010-03-30 12:24 51°9.711 2°37.835 10.5 285 10.3 98910 37
2010-03-30 12:25 51°9.638 2°37.803 9.3 285 10.4 98900 37
2010-03-30 12:26 51°9.572 2°37.73 9.3 278 10.4 98900 38
2010-03-30 12:27 51°9.504 2°37.657 9.7 280 10.4 98890 37
2010-03-30 12:28 51°9.454 2°37.592 12 281 10.5 98890 38
2010-03-30 12:29 51°9.444 2°37.554 10.3 284 10.6 98900 37
2010-03-30 12:30 51°9.455 2°37.537 7.4 281 10.6 98910 37
2010-03-30 12:31 51°9.471 2°37.536 7.3 285 10.7 98920 37
2010-03-30 12:32 51°9.489 2°37.547 7.8 285 10.7 98920 37
2010-03-30 12:33 51°9.508 2°37.564 8.2 278 10.7 98920 37
2010-03-30 12:34 51°9.526 2°37.584 8.3 285 10.7 98910 37
2010-03-30 12:35 51°9.545 2°37.6 5.9 284 10.6 98910 38
2010-03-30 12:36 51°9.56 2°37.612 8.5 286 10.7 98910 38
2010-03-30 12:37 51°9.57 2°37.619 7 279 10.7 98900 36
2010-03-30 12:38 51°9.58 2°37.622 7.3 283 10.8 98900 37
2010-03-30 12:39 51°9.587 2°37.623 7 280 10.9 98900 38
2010-03-30 12:40 51°9.59 2°37.625 8.3 285 10.8 98900 38
2010-03-30 12:41 51°9.593 2°37.625 7.3 284 10.7 98900 38
2010-03-30 12:42 51°9.594 2°37.624 8.4 279 10.8 98890 36
2010-03-30 12:43 51°9.594 2°37.622 7.2 282 10.9 98890 37
2010-03-30 12:44 51°9.593 2°37.62 7.2 284 10.9 98900 37
2010-03-30 12:45 51°9.592 2°37.621 8 284 10.8 98880 35
2010-03-30 12:46 51°9.59 2°37.623 8.6 278 10.9 98880 36
2010-03-30 12:47 51°9.554 2°37.591 7.7 280 10.9 98880 36
2010-03-30 12:48 51°9.519 2°37.532 7.5 280 10.8 98870 36
2010-03-30 12:49 51°9.519 2°37.5 5.7 278 10.8 98880 36
2010-03-30 12:50 51°9.535 2°37.487 5.3 21 10.8 98900 36
2010-03-30 12:51 51°9.546 2°37.483 5.7 284 10.8 98890 37
2010-03-30 12:52 51°9.551 2°37.48 7.3 19 10.9 98890 37
2010-03-30 12:53 51°9.553 2°37.472 6.5 21 10.9 98890 35
2010-03-30 12:54 51°9.555 2°37.463 7.2 280 10.9 98900 36
2010-03-30 12:55 51°9.557 2°37.458 6.5 21 11.1 98900 35
2010-03-30 12:56 51°9.56 2°37.454 6.1 286 11.1 98890 35
2010-03-30 12:57 51°9.562 2°37.453 6.8 20 11.2 98880 37
2010-03-30 12:58 51°9.563 2°37.455 6.3 23 11.2 98880 37
2010-03-30 12:59 51°9.562 2°37.457 6 22 11.1 98880 37
2010-03-30 13:00 51°9.562 2°37.459 5.4 278 11 98880 36
2010-03-30 13:01 51°9.559 2°37.461 5.4 22 11 98890 35
2010-03-30 13:02 51°9.554 2°37.465 5.5 278 10.9 98880 36
2010-03-30 13:03 51°9.547 2°37.469 5.8 280 10.8 98880 36
2010-03-30 13:04 51°9.54 2°37.471 5.7 277 10.8 98880 38
2010-03-30 13:05 51°9.533 2°37.472 6.1 280 10.7 98880 37
2010-03-30 13:06 51°9.53 2°37.477 6.7 26 10.7 98880 37
2010-03-30 13:07 51°9.532 2°37.486 7.2 286 10.7 98890 37
2010-03-30 13:08 51°9.537 2°37.496 6.8 278 10.8 98870 36
2010-03-30 13:09 51°9.543 2°37.506 7.7 284 11.1 98890 35
2010-03-30 13:10 51°9.548 2°37.512 6.5 21 11.1 98880 36
2010-03-30 13:11 51°9.548 2°37.515 6.3 285 11 98880 37
2010-03-30 13:12 51°9.545 2°37.515 6.7 278 11 98880 38
2010-03-30 13:13 51°9.541 2°37.511 6.4 285 11 98860 36
2010-03-30 13:14 51°9.537 2°37.507 6.6 284 11.1 98870 36
2010-03-30 13:15 51°9.532 2°37.504 7.1 25 11.1 98870 37
2010-03-30 13:16 51°9.526 2°37.501 7.1 281 11.1 98860 37
2010-03-30 13:17 51°9.521 2°37.499 7 25 11.2 98870 36
2010-03-30 13:18 51°9.517 2°37.497 6.5 282 11.2 98870 37
2010-03-30 13:19 51°9.511 2°37.496 6.1 316 11.2 98870 37
2010-03-30 13:20 51°9.505 2°37.495 5.7 280 11.2 98870 37
2010-03-30 13:21 51°9.497 2°37.495 6 286 11.2 98870 36
2010-03-30 13:22 51°9.489 2°37.494 6.6 316 11.2 98860 37
2010-03-30 13:23 51°9.484 2°37.496 5.4 281 11.3 98860 36
2010-03-30 13:24 51°9.48 2°37.498 5.9 22 11.3 98880 37
2010-03-30 13:25 51°9.475 2°37.502 5.5 282 11.3 98860 35
2010-03-30 13:26 51°9.472 2°37.506 5.3 284 11.3 98870 36
2010-03-30 13:27 51°9.468 2°37.51 6.4 282 11.1 98860 36
2010-03-30 13:28 51°9.466 2°37.515 7.8 21 11.2 98850 35
2010-03-30 13:29 51°9.468 2°37.518 6.9 284 11.3 98850 36
2010-03-30 13:30 51°9.47 2°37.524 7.3 280 11.3 98860 36
2010-03-30 13:31 51°9.473 2°37.529 8.4 317 11.4 98850 37
2010-03-30 13:32 51°9.479 2°37.533 6.8 278 11.5 98850 35
2010-03-30 13:33 51°9.484 2°37.534 7.2 286 11.5 98840 34
2010-03-30 13:34 51°9.49 2°37.535 7.6 282 11.6 98860 35
2010-03-30 13:35 51°9.495 2°37.535 7.6 279 11.6 98860 36
2010-03-30 13:36 51°9.501 2°37.532 6.7 286 11.6 98840 35
2010-03-30 13:37 51°9.507 2°37.53 6.4 279 11.7 98840 36
2010-03-30 13:38 51°9.512 2°37.525 7 278 11.7 98860 35
2010-03-30 13:39 51°9.518 2°37.519 8.7 26 11.6 98850 37
2010-03-30 13:40 51°9.525 2°37.513 7.7 282 11.7 98850 35
2010-03-30 13:41 51°9.534 2°37.508 7 283 11.9 98850 35
2010-03-30 13:42 51°9.544 2°37.511 5.8 280 11.9 98860 36
2010-03-30 13:43 51°9.557 2°37.519 7.3 282 11.8 98860 35
2010-03-30 13:44 51°9.571 2°37.527 6.8 18 11.8 98860 36
2010-03-30 13:45 51°9.587 2°37.534 7.6 281 11.9 98860 35
2010-03-30 13:46 51°9.603 2°37.542 6.7 243 11.9 98860 36
2010-03-30 13:47 51°9.618 2°37.55 7.8 281 11.9 98860 36
2010-03-30 13:48 51°9.634 2°37.556 7.9 25 11.8 98850 36
2010-03-30 13:49 51°9.661 2°37.519 6.3 258 11.8 98850 34
2010-03-30 13:50 51°9.753 2°37.519 4.2 44 11.8 98860 35
2010-03-30 13:51 51°9.854 2°37.752 7.3 13 11.8 98850 35
2010-03-30 13:52 51°9.885 2°38.134 6.2 3 11.6 98830 35
2010-03-30 13:53 51°9.938 2°38.526 7.1 7 11.5 98830 36
2010-03-30 13:54 51°9.987 2°38.918 8.4 -999 11.4 98850 36
2010-03-30 13:55 51°10.018 2°39.297 9.6 2 11.3 98830 35
2010-03-30 13:56 51°10.049 2°39.686 8.2 360 11.5 98830 35
2010-03-30 13:57 51°10.069 2°40.071 8.6 1 11.6 98830 35
2010-03-30 13:58 51°10.06 2°40.456 8.6 -999 11.8 98820 35
2010-03-30 13:59 51°10.051 2°40.847 6.8 3 11.8 98830 36
2010-03-30 14:00 51°10.044 2°41.234 7.3 -999 11.7 98830 35
2010-03-30 14:01 51°10.035 2°41.617 7.2 4 11.7 98820 36
2010-03-30 14:02 51°10.027 2°41.979 6.4 4 11.8 98830 34
2010-03-30 14:03 51°10.032 2°42.258 6.3 2 11.9 98840 34
2010-03-30 14:04 51°10.05 2°42.505 7.5 3 12 98820 34
2010-03-30 14:05 51°10.068 2°42.693 6.7 19 12.1 98830 34
2010-03-30 14:06 51°10.122 2°42.785 5 29 12.1 98840 34
2010-03-30 14:07 51°10.187 2°42.761 6.3 260 12.3 98850 34
2010-03-30 14:08 51°10.202 2°42.701 7.4 280 12.3 98840 35
2010-03-30 14:09 51°10.199 2°42.669 7.3 25 12.3 98830 35
2010-03-30 14:10 51°10.202 2°42.654 7.4 286 12.3 98840 35
2010-03-30 14:11 51°10.206 2°42.642 6.6 26 12.4 98840 34
2010-03-30 14:12 51°10.212 2°42.633 7.2 24 12.5 98850 35
2010-03-30 14:13 51°10.22 2°42.626 7.3 243 12.6 98840 34
2010-03-30 14:14 51°10.229 2°42.618 9.3 28 12.6 98840 35
2010-03-30 14:15 51°10.239 2°42.609 8.6 20 12.5 98840 34
2010-03-30 14:16 51°10.245 2°42.594 7.6 23 12.6 98850 34
2010-03-30 14:17 51°10.246 2°42.578 7.1 20 12.6 98830 35
2010-03-30 14:18 51°10.246 2°42.566 7.5 24 12.5 98820 34
2010-03-30 14:19 51°10.249 2°42.555 7.2 19 12.5 98830 35
2010-03-30 14:20 51°10.257 2°42.545 7.8 249 12.5 98840 35
2010-03-30 14:21 51°10.264 2°42.535 6.9 245 12.6 98840 33
2010-03-30 14:22 51°10.271 2°42.527 7.7 24 12.7 98820 34
2010-03-30 14:23 51°10.278 2°42.519 8 20 12.7 98830 35
2010-03-30 14:24 51°10.287 2°42.51 6.7 249 12.7 98830 34
2010-03-30 14:25 51°10.294 2°42.5 9.4 22 12.6 98840 35
2010-03-30 14:26 51°10.303 2°42.489 7.6 283 12.6 98830 35
2010-03-30 14:27 51°10.311 2°42.48 7.7 21 12.6 98830 36
2010-03-30 14:28 51°10.32 2°42.471 7.7 21 12.6 98830 35
2010-03-30 14:29 51°10.328 2°42.465 8.4 18 12.6 98830 34
2010-03-30 14:30 51°10.341 2°42.466 8.8 28 12.6 98820 34
2010-03-30 14:31 51°10.357 2°42.472 8.7 251 12.7 98830 34
2010-03-30 14:32 51°10.375 2°42.481 8.7 260 12.6 98840 34
2010-03-30 14:33 51°10.395 2°42.492 7.1 260 12.6 98830 34
2010-03-30 14:34 51°10.412 2°42.485 9.7 250 12.7 98850 34
2010-03-30 14:35 51°10.388 2°42.449 9.1 331 12.8 98780 34
2010-03-30 14:36 51°10.347 2°42.517 8.6 356 12.7 98780 34
2010-03-30 14:37 51°10.309 2°42.653 11.3 347 12.6 98790 34
2010-03-30 14:38 51°10.257 2°42.777 8.7 340 12.5 98760 35
2010-03-30 14:39 51°10.211 2°42.834 8.6 338 12.6 98790 35
2010-03-30 14:40 51°10.174 2°42.86 9.2 329 12.7 98780 35
2010-03-30 14:41 51°10.16 2°42.86 9.7 23 12.9 98770 35
2010-03-30 14:42 51°10.168 2°42.852 7.2 244 12.8 98810 34
2010-03-30 14:43 51°10.18 2°42.846 9.3 18 12.9 98810 35
2010-03-30 14:44 51°10.192 2°42.845 8.8 253 13 98810 35
2010-03-30 14:45 51°10.206 2°42.844 8.3 255 13 98820 33
2010-03-30 14:46 51°10.22 2°42.843 8 279 12.9 98810 35
2010-03-30 14:47 51°10.236 2°42.841 7.6 260 12.9 98820 34
2010-03-30 14:48 51°10.252 2°42.84 6.4 261 12.9 98810 35
2010-03-30 14:49 51°10.267 2°42.84 8.1 256 12.9 98810 34
2010-03-30 14:50 51°10.282 2°42.841 7.4 261 13 98810 34
2010-03-30 14:51 51°10.297 2°42.841 11 258 12.8 98810 34
2010-03-30 14:52 51°10.314 2°42.843 7.6 258 12.8 98820 34
2010-03-30 14:53 51°10.329 2°42.843 6.2 259 12.8 98830 33
2010-03-30 14:54 51°10.346 2°42.844 5.7 262 12.8 98830 33
2010-03-30 14:55 51°10.361 2°42.846 7.9 259 12.8 98810 35
2010-03-30 14:56 51°10.376 2°42.849 6 260 12.7 98820 35
2010-03-30 14:57 51°10.39 2°42.852 5.9 259 12.7 98830 34
2010-03-30 14:58 51°10.406 2°42.855 7.1 262 12.7 98820 35
2010-03-30 14:59 51°10.424 2°42.858 7.7 261 12.7 98810 35
2010-03-30 15:00 51°10.441 2°42.861 8 254 12.7 98810 34
2010-03-30 15:01 51°10.458 2°42.865 10 259 12.7 98810 33
2010-03-30 15:02 51°10.475 2°42.869 9.5 258 12.7 98810 34
2010-03-30 15:03 51°10.493 2°42.872 9.3 256 12.6 98820 35
2010-03-30 15:04 51°10.525 2°42.822 6 270 12.5 98780 35
2010-03-30 15:05 51°10.608 2°42.86 7.5 24 12.5 98810 36
2010-03-30 15:06 51°10.64 2°42.961 9.2 20 12.3 98810 35
2010-03-30 15:07 51°10.657 2°43.044 9.7 14 12.3 98780 35
2010-03-30 15:08 51°10.667 2°43.152 6.8 6 12.4 98780 35
2010-03-30 15:09 51°10.67 2°43.254 7.3 3 12.4 98790 34
2010-03-30 15:10 51°10.669 2°43.355 7.4 5 12.3 98790 36
2010-03-30 15:11 51°10.673 2°43.451 9.1 15 12.3 98790 35
2010-03-30 15:12 51°10.699 2°43.548 7.8 24 12.2 98800 36
2010-03-30 15:13 51°10.731 2°43.647 10.6 22 12.1 98790 35
2010-03-30 15:14 51°10.766 2°43.743 8.2 18 12.2 98780 35
2010-03-30 15:15 51°10.801 2°43.831 7.3 24 12.1 98790 36
2010-03-30 15:16 51°10.847 2°43.917 8.2 27 12.1 98790 36
2010-03-30 15:17 51°10.895 2°44 9.9 30 12.1 98800 36
2010-03-30 15:18 51°10.941 2°44.08 10.7 32 12.1 98790 35
2010-03-30 15:19 51°10.986 2°44.16 8.9 33 12.2 98790 35
2010-03-30 15:20 51°11.031 2°44.237 8.2 31 12.2 98800 36
2010-03-30 15:21 51°11.074 2°44.317 8.1 31 12.2 98800 36
2010-03-30 15:22 51°11.115 2°44.399 18.7 35 12.2 98800 35
2010-03-30 15:23 51°11.153 2°44.503 13.3 28 11.5 98840 36
2010-03-30 15:24 51°11.193 2°44.616 11.2 23 9.6 98930 37
2010-03-30 15:25 51°11.242 2°44.712 12.4 21 8.2 98950 38
2010-03-30 15:26 51°11.291 2°44.81 8.2 28 7.6 98940 38
2010-03-30 15:27 51°11.325 2°44.924 13.6 25 7.1 98900 41
2010-03-30 15:28 51°11.334 2°45.044 12.2 40 6.9 98910 40
2010-03-30 15:29 51°11.325 2°45.144 13.5 31 6.7 98900 41
2010-03-30 15:30 51°11.313 2°45.229 13.6 30 6.6 98880 41
2010-03-30 15:31 51°11.296 2°45.3 9.9 27 6.6 98910 42
2010-03-30 15:32 51°11.275 2°45.37 11.6 24 6.5 98920 41
2010-03-30 15:33 51°11.26 2°45.429 14.1 17 6.5 98890 41
2010-03-30 15:34 51°11.254 2°45.476 12 18 6.5 98910 41
2010-03-30 15:35 51°11.255 2°45.515 13 16 6.5 98890 41
2010-03-30 15:36 51°11.26 2°45.554 14.2 14 6.5 98910 40
2010-03-30 15:37 51°11.27 2°45.597 14.9 19 6.5 98910 40
2010-03-30 15:38 51°11.282 2°45.639 13.3 24 6.5 98910 40
2010-03-30 15:39 51°11.297 2°45.677 10.4 26 6.5 98920 40
2010-03-30 15:40 51°11.296 2°45.751 7.9 39 6.6 98930 41
2010-03-30 15:41 51°11.335 2°45.871 8.1 26 6.6 98970 40
2010-03-30 15:42 51°11.379 2°45.931 12.3 19 6.6 98980 41
2010-03-30 15:43 51°11.403 2°45.966 8.4 266 6.6 98970 41
2010-03-30 15:44 51°11.424 2°45.993 9 262 6.6 99000 41
2010-03-30 15:45 51°11.44 2°46.023 10.6 259 6.6 98980 39
2010-03-30 15:46 51°11.455 2°46.059 7.6 263 6.6 98980 40
2010-03-30 15:47 51°11.49 2°46.087 10.1 35 6.6 99010 40
2010-03-30 15:48 51°11.593 2°46.252 7 28 6.6 98980 39
2010-03-30 15:49 51°11.664 2°46.595 7.9 23 6.7 98970 38
2010-03-30 15:50 51°11.758 2°46.952 3.8 76 6.6 98980 39
2010-03-30 15:51 51°11.86 2°47.298 4.5 22 6.8 98980 40
2010-03-30 15:52 51°11.963 2°47.642 6.3 77 7.1 98980 39
2010-03-30 15:53 51°12.063 2°47.988 7.3 76 7 98970 38
2010-03-30 15:54 51°12.16 2°48.331 4.6 75 7.1 98980 39
2010-03-30 15:55 51°12.272 2°48.659 3.2 80 7.1 98970 38
2010-03-30 15:56 51°12.395 2°48.975 3.9 81 7.7 98970 40
2010-03-30 15:57 51°12.521 2°49.292 3.9 76 7.9 98970 36
2010-03-30 15:58 51°12.649 2°49.618 3.9 80 8.4 98970 37
2010-03-30 15:59 51°12.78 2°49.934 1 73 8.4 98970 37
2010-03-30 16:00 51°12.907 2°50.247 3.3 76 8.3 98980 36
2010-03-30 16:01 51°13.031 2°50.569 4.8 75 8 98990 37
2010-03-30 16:02 51°13.159 2°50.9 5.7 76 8.3 98980 38
2010-03-30 16:03 51°13.281 2°51.225 7.8 81 8.3 98990 35
2010-03-30 16:04 51°13.404 2°51.545 7 76 7.8 98990 36
2010-03-30 16:05 51°13.544 2°51.867 5.5 81 7.6 99010 35
2010-03-30 16:06 51°13.678 2°52.182 4.4 75 7.6 99000 38
2010-03-30 16:07 51°13.801 2°52.465 4.5 75 7.9 99000 39
2010-03-30 16:08 51°13.924 2°52.743 4.2 80 8.2 99000 38
2010-03-30 16:09 51°14.041 2°53.019 6.6 22 8.2 99000 37
2010-03-30 16:10 51°14.151 2°53.276 8.7 82 8.3 99000 38
2010-03-30 16:11 51°14.25 2°53.504 7.1 78 7.8 99000 35
2010-03-30 16:12 51°14.331 2°53.705 7.9 74 7.6 99000 36
2010-03-30 16:13 51°14.402 2°53.884 9.5 77 7.3 99000 36
2010-03-30 16:14 51°14.458 2°54.051 8.2 80 7 98990 38
2010-03-30 16:15 51°14.523 2°54.277 6.7 74 6.9 98990 37
2010-03-30 16:16 51°14.585 2°54.579 4.6 38 6.8 98990 37
2010-03-30 16:17 51°14.589 2°54.903 12.4 20 6.8 98990 39
2010-03-30 16:18 51°14.442 2°55.108 10.6 3 6.8 98960 37
2010-03-30 16:19 51°14.28 2°55.28 9.6 355 6.8 98990 37
2010-03-30 16:20 51°14.148 2°55.395 5.3 340 6.8 99010 37
2010-03-30 16:21 51°14.043 2°55.478 6.2 6 6.9 99010 36
2010-03-30 16:22 51°13.958 2°55.542 6.5 18 6.9 99020 37
2010-03-30 16:23 51°13.865 2°55.608 6.9 285 7 99020 38
2010-03-30 16:24 51°13.787 2°55.677 2.9 348 6.9 99020 38
2010-03-30 16:25 51°13.733 2°55.766 7.3 7 6.9 99020 37
2010-03-30 16:26 51°13.691 2°55.855 7.5 14 6.9 99010 37
2010-03-30 16:27 51°13.666 2°55.941 3.4 21 6.8 99030 36